Terminal Aerodrome Forecast
Issued by NWS

Home | Current Version | Previous Version | Text Only | Print | Product List | Glossary On
Versions: 1 2 3 4 5 6 7 8 9 10 11 12 13 14 15 16 17 18 19 20 21 22 23 24 25 26 27 28 29 30 31
000
FTUS45 KGJT 071729
TAFTEX
TAF
KTEX 071729Z 0718/0818 29008G18KT P6SM -TSRA SCT019 BKN026CB OVC030
     FM072000 23008KT P6SM VCTS SCT050 BKN090CB
      TEMPO 0720/0722 VRB10G20KT 4SM TSRA SCT030 OVC050CB
     FM072200 17005KT P6SM -SHRA VCTS SCT030 OVC050CB
     FM080400 12003KT P6SM VCSH SCT050 OVC080=

USA.gov is the U.S. government's official web portal to all federal, state and local government web resources and services.